createdAt,value
2022-07-30T00:01:47.707Z,0.80
2022-07-30T00:04:15.401Z,0.70
2022-07-30T00:06:43.054Z,0.70
2022-07-30T00:09:10.711Z,0.90
2022-07-30T00:11:38.460Z,0.80
2022-07-30T00:14:06.098Z,0.60
2022-07-30T00:16:33.836Z,0.90
2022-07-30T00:19:02.235Z,0.90
2022-07-30T00:21:38.514Z,0.90
2022-07-30T00:24:08.651Z,0.60
2022-07-30T00:26:36.415Z,0.80
2022-07-30T00:29:05.092Z,0.70
2022-07-30T00:31:33.140Z,0.80
2022-07-30T00:34:00.821Z,0.70
2022-07-30T00:36:28.620Z,0.70
2022-07-30T00:38:56.387Z,0.70
2022-07-30T00:41:24.926Z,0.90
2022-07-30T00:43:52.589Z,0.70
2022-07-30T00:46:20.394Z,0.80
2022-07-30T00:48:48.112Z,0.70
2022-07-30T00:51:15.831Z,1.00
2022-07-30T00:53:43.505Z,1.00
2022-07-30T00:56:11.230Z,0.70
2022-07-30T00:58:38.821Z,0.50
2022-07-30T01:01:06.512Z,0.70
2022-07-30T01:03:34.146Z,0.70
2022-07-30T01:06:01.841Z,0.80
2022-07-30T01:08:29.566Z,0.90
2022-07-30T01:10:57.246Z,0.90
2022-07-30T01:13:24.917Z,0.70
2022-07-30T01:15:52.701Z,0.70
2022-07-30T01:18:22.050Z,0.70
2022-07-30T01:21:09.612Z,0.90
2022-07-30T01:23:43.605Z,0.40
2022-07-30T01:26:14.552Z,0.80
2022-07-30T01:28:45.776Z,0.70
2022-07-30T01:31:14.992Z,0.50
2022-07-30T01:33:45.879Z,0.70
2022-07-30T01:36:17.896Z,0.60
2022-07-30T01:38:46.776Z,0.70
2022-07-30T01:41:16.291Z,0.70
2022-07-30T01:43:46.804Z,0.70
2022-07-30T01:46:17.644Z,0.60
2022-07-30T01:48:46.073Z,0.80
2022-07-30T01:51:14.428Z,0.80
2022-07-30T01:53:43.184Z,0.80
2022-07-30T01:56:16.601Z,0.70
2022-07-30T01:58:47.646Z,0.80
2022-07-30T02:01:15.717Z,0.80
2022-07-30T02:03:43.605Z,0.70
2022-07-30T02:06:20.039Z,0.90
2022-07-30T02:08:57.550Z,0.80
2022-07-30T02:11:44.089Z,0.80
2022-07-30T02:14:22.553Z,0.70
2022-07-30T02:16:56.235Z,0.70
2022-07-30T02:19:32.610Z,1.10
2022-07-30T02:22:06.783Z,0.90
2022-07-30T02:24:37.573Z,0.80
2022-07-30T02:27:10.559Z,0.80
2022-07-30T02:29:38.838Z,0.80
2022-07-30T02:32:09.861Z,0.80
2022-07-30T02:34:40.523Z,0.90
2022-07-30T02:37:11.339Z,0.90
2022-07-30T02:39:40.482Z,0.80
2022-07-30T02:42:09.211Z,1.00
2022-07-30T02:44:38.575Z,1.00
2022-07-30T02:47:07.153Z,0.80
2022-07-30T02:49:36.822Z,1.00
2022-07-30T02:52:05.418Z,1.20
2022-07-30T02:54:33.607Z,0.90
2022-07-30T02:57:02.947Z,1.00
2022-07-30T02:59:32.269Z,0.80
2022-07-30T03:02:00.897Z,1.00
2022-07-30T03:04:29.680Z,0.80
2022-07-30T03:06:59.912Z,0.90
2022-07-30T03:09:50.794Z,1.10
2022-07-30T03:12:19.290Z,0.90
2022-07-30T03:14:47.060Z,1.00
2022-07-30T03:17:15.911Z,1.00
2022-07-30T03:19:45.785Z,1.00
2022-07-30T03:22:15.416Z,1.00
2022-07-30T03:24:44.315Z,1.00
2022-07-30T03:27:13.860Z,0.80
2022-07-30T03:29:42.078Z,0.90
2022-07-30T03:32:13.634Z,1.00
2022-07-30T03:34:43.703Z,1.10
2022-07-30T03:37:12.822Z,1.10
2022-07-30T03:39:40.864Z,1.20
2022-07-30T03:42:09.144Z,1.20
2022-07-30T03:44:38.627Z,1.50
2022-07-30T03:47:07.228Z,1.30
2022-07-30T03:49:35.116Z,1.10
2022-07-30T03:52:04.393Z,1.10
2022-07-30T03:54:35.674Z,1.00
2022-07-30T03:57:04.778Z,1.10
2022-07-30T03:59:33.303Z,1.10
2022-07-30T04:02:06.741Z,1.00
2022-07-30T04:04:35.283Z,1.00
2022-07-30T04:07:03.065Z,1.10
2022-07-30T04:09:30.961Z,1.10
2022-07-30T04:11:59.029Z,1.10
2022-07-30T04:14:26.960Z,1.00
2022-07-30T04:17:00.824Z,1.20
2022-07-30T04:19:31.534Z,1.10
2022-07-30T04:22:01.918Z,1.10
2022-07-30T04:24:31.490Z,0.90
2022-07-30T04:27:00.731Z,1.00
2022-07-30T04:29:28.949Z,1.00
2022-07-30T04:31:56.893Z,0.90
2022-07-30T04:34:24.580Z,0.90
2022-07-30T04:36:52.203Z,0.90
2022-07-30T04:39:19.918Z,0.70
2022-07-30T04:41:48.954Z,0.80
2022-07-30T04:44:20.835Z,1.10
2022-07-30T04:46:48.623Z,0.90
2022-07-30T04:49:18.328Z,0.80
2022-07-30T04:51:47.028Z,0.90
2022-07-30T04:54:16.186Z,0.90
2022-07-30T04:56:53.411Z,0.80
2022-07-30T04:59:25.034Z,1.00
2022-07-30T05:01:55.867Z,1.10
2022-07-30T05:04:25.027Z,1.10
2022-07-30T05:06:54.003Z,1.30
2022-07-30T05:09:22.637Z,0.80
2022-07-30T05:11:54.633Z,1.10
2022-07-30T05:14:23.803Z,1.00
2022-07-30T05:16:52.530Z,0.90
2022-07-30T05:19:21.905Z,0.90
2022-07-30T05:21:49.699Z,1.00
2022-07-30T05:24:17.491Z,0.90
2022-07-30T05:26:46.373Z,1.00
2022-07-30T05:29:18.075Z,1.30
2022-07-30T05:31:48.719Z,1.40
2022-07-30T05:34:16.540Z,1.60
2022-07-30T05:36:45.185Z,1.30
2022-07-30T05:39:13.461Z,1.50
2022-07-30T05:41:41.144Z,1.60
2022-07-30T05:44:08.899Z,1.50
2022-07-30T05:46:36.688Z,1.30
2022-07-30T05:49:05.592Z,1.60
2022-07-30T05:51:33.276Z,1.50
2022-07-30T05:54:00.912Z,1.90
2022-07-30T05:56:28.541Z,2.10
2022-07-30T05:58:56.201Z,2.00
2022-07-30T06:01:24.019Z,1.50
2022-07-30T06:03:51.816Z,1.70
2022-07-30T06:06:22.854Z,1.90
2022-07-30T06:08:51.234Z,1.70
2022-07-30T06:11:18.879Z,1.70
2022-07-30T06:13:46.511Z,1.70
2022-07-30T06:16:14.159Z,1.50
2022-07-30T06:18:41.828Z,1.40
2022-07-30T06:21:09.547Z,1.40
2022-07-30T06:23:37.172Z,1.40
2022-07-30T06:26:04.875Z,1.50
2022-07-30T06:28:38.161Z,1.30
2022-07-30T06:31:07.112Z,1.20
2022-07-30T06:33:34.893Z,1.10
2022-07-30T06:36:02.608Z,1.10
2022-07-30T06:38:30.508Z,1.10
2022-07-30T06:41:03.020Z,1.00
2022-07-30T06:43:32.429Z,1.10
2022-07-30T06:46:00.902Z,1.20
2022-07-30T06:48:31.141Z,1.00
2022-07-30T06:50:59.149Z,1.20
2022-07-30T06:53:27.233Z,0.90
2022-07-30T06:56:00.292Z,1.00
2022-07-30T06:58:29.300Z,1.10
2022-07-30T07:00:57.158Z,1.30
2022-07-30T07:03:26.354Z,1.10
2022-07-30T07:06:07.442Z,1.30
2022-07-30T07:08:38.512Z,1.30
2022-07-30T07:11:06.516Z,1.10
2022-07-30T07:13:34.429Z,1.00
2022-07-30T07:16:02.566Z,1.20
2022-07-30T07:18:30.520Z,1.30
2022-07-30T07:20:58.250Z,1.20
2022-07-30T07:23:25.891Z,1.30
2022-07-30T07:26:09.272Z,1.00
2022-07-30T07:28:36.948Z,1.00
2022-07-30T07:31:05.123Z,1.10
2022-07-30T07:33:32.894Z,1.30
2022-07-30T07:36:00.742Z,1.20
2022-07-30T07:38:28.679Z,1.50
2022-07-30T07:40:56.330Z,1.50
2022-07-30T07:43:25.318Z,1.60
2022-07-30T07:45:53.112Z,1.50
2022-07-30T07:48:20.816Z,1.50
2022-07-30T07:50:48.641Z,1.60
2022-07-30T07:53:16.496Z,1.60
2022-07-30T07:55:44.394Z,1.60
2022-07-30T07:58:16.420Z,1.80
2022-07-30T08:00:49.920Z,2.20
2022-07-30T08:03:17.669Z,2.00
2022-07-30T08:05:54.418Z,1.70
2022-07-30T08:08:33.292Z,1.60
2022-07-30T08:11:00.885Z,1.40
2022-07-30T08:13:52.332Z,1.60
2022-07-30T08:16:16.359Z,1.60
2022-07-30T08:18:44.012Z,1.60
2022-07-30T08:21:11.731Z,1.30
2022-07-30T08:23:42.471Z,1.50
2022-07-30T08:26:10.430Z,1.50
2022-07-30T08:28:38.489Z,1.60
2022-07-30T08:31:06.419Z,1.70
2022-07-30T08:34:13.784Z,1.40
2022-07-30T08:36:42.205Z,1.80
2022-07-30T08:39:10.024Z,2.00
2022-07-30T08:41:37.907Z,2.30
2022-07-30T08:44:12.819Z,2.50
2022-07-30T08:46:47.260Z,2.70
2022-07-30T08:49:16.063Z,2.20
2022-07-30T08:51:43.817Z,2.70
2022-07-30T08:54:11.782Z,2.20
2022-07-30T08:56:39.559Z,2.30
2022-07-30T08:59:07.747Z,2.10
2022-07-30T09:01:35.564Z,2.20
2022-07-30T09:06:37.050Z,1.80
2022-07-30T09:09:04.719Z,2.10
2022-07-30T09:11:35.906Z,2.00
2022-07-30T09:14:11.502Z,1.80
2022-07-30T09:16:40.079Z,1.90
2022-07-30T09:19:17.280Z,1.70
2022-07-30T09:21:58.220Z,1.70
2022-07-30T09:24:26.905Z,1.80
2022-07-30T09:27:10.166Z,1.30
2022-07-30T09:29:37.861Z,1.30
2022-07-30T09:32:08.154Z,1.40
2022-07-30T09:34:40.196Z,1.30
2022-07-30T09:37:10.890Z,1.50
2022-07-30T09:42:19.800Z,1.50
2022-07-30T09:44:48.168Z,1.30
2022-07-30T09:47:31.747Z,1.70
2022-07-30T09:50:29.840Z,1.60
2022-07-30T09:53:09.480Z,1.60
2022-07-30T09:55:42.087Z,1.40
2022-07-30T09:58:12.829Z,1.40
2022-07-30T10:01:01.283Z,1.60
2022-07-30T10:03:33.956Z,1.70
2022-07-30T10:06:06.112Z,1.70
2022-07-30T10:08:51.363Z,1.70
2022-07-30T10:11:24.468Z,2.00
2022-07-30T10:13:56.148Z,1.80
2022-07-30T10:16:29.727Z,2.10
2022-07-30T10:19:00.214Z,1.60
2022-07-30T10:21:28.531Z,1.80
2022-07-30T10:24:00.398Z,1.60
2022-07-30T10:26:28.715Z,1.50
2022-07-30T10:28:57.052Z,1.60
2022-07-30T10:31:48.145Z,2.10
2022-07-30T10:34:17.048Z,1.90
2022-07-30T10:36:51.215Z,1.80
2022-07-30T10:39:26.417Z,2.00
2022-07-30T10:42:11.132Z,1.90
2022-07-30T10:45:02.112Z,2.00
2022-07-30T10:47:34.676Z,2.20
2022-07-30T10:50:32.911Z,2.20
2022-07-30T10:53:01.748Z,1.70
2022-07-30T10:55:38.926Z,1.60
2022-07-30T10:58:10.306Z,2.20
2022-07-30T11:00:53.535Z,2.30
2022-07-30T11:03:23.854Z,2.60
2022-07-30T11:06:15.577Z,2.30
2022-07-30T11:08:48.213Z,2.10
2022-07-30T11:11:28.691Z,2.10
2022-07-30T11:14:09.974Z,2.70
2022-07-30T11:16:40.595Z,2.40
2022-07-30T11:19:55.708Z,2.40
2022-07-30T11:22:24.012Z,2.00
2022-07-30T11:24:51.776Z,1.70
2022-07-30T11:27:48.875Z,1.70
2022-07-30T11:30:16.957Z,1.80
2022-07-30T11:32:49.378Z,1.80
2022-07-30T11:35:34.928Z,1.80
2022-07-30T11:38:18.739Z,1.90
2022-07-30T11:40:49.901Z,1.90
2022-07-30T11:43:37.065Z,1.60
2022-07-30T11:46:16.481Z,2.00
2022-07-30T11:49:08.372Z,1.70
2022-07-30T11:51:43.750Z,1.80
2022-07-30T11:54:12.561Z,2.00
2022-07-30T11:56:53.190Z,2.50
2022-07-30T11:59:20.989Z,3.70
2022-07-30T12:01:53.306Z,2.80
2022-07-30T12:04:21.065Z,2.50
2022-07-30T12:06:49.082Z,2.40
2022-07-30T12:09:27.403Z,2.20
2022-07-30T12:11:56.719Z,2.20
2022-07-30T12:14:24.684Z,1.90
2022-07-30T12:16:54.571Z,2.20
2022-07-30T12:19:22.332Z,2.20
2022-07-30T12:21:53.261Z,1.90
2022-07-30T12:24:26.817Z,2.70
2022-07-30T12:27:07.629Z,2.30
2022-07-30T12:29:35.888Z,2.40
2022-07-30T12:32:03.904Z,2.70
2022-07-30T12:34:31.639Z,2.30
2022-07-30T12:37:10.230Z,2.40
2022-07-30T12:39:38.143Z,2.00
2022-07-30T12:42:18.848Z,1.90
2022-07-30T12:44:49.160Z,2.40
2022-07-30T12:47:24.949Z,2.10
2022-07-30T12:49:54.361Z,2.30
2022-07-30T12:52:28.488Z,2.10
2022-07-30T12:55:11.702Z,2.00
2022-07-30T12:57:56.480Z,2.30
2022-07-30T13:00:30.428Z,2.30
2022-07-30T13:02:59.340Z,2.60
2022-07-30T13:05:50.314Z,2.30
2022-07-30T13:08:18.500Z,2.30
2022-07-30T13:10:58.253Z,2.20
2022-07-30T13:13:31.133Z,2.40
2022-07-30T13:16:03.418Z,2.80
2022-07-30T13:18:32.576Z,2.60
2022-07-30T13:21:01.759Z,3.10
2022-07-30T13:23:29.996Z,3.30
2022-07-30T13:25:58.135Z,2.60
2022-07-30T13:28:26.148Z,2.30
2022-07-30T13:30:53.961Z,2.50
2022-07-30T13:33:21.583Z,2.40
2022-07-30T13:35:49.220Z,2.40
2022-07-30T13:38:16.990Z,2.50
2022-07-30T13:40:44.830Z,2.30
2022-07-30T13:43:12.470Z,2.30
2022-07-30T13:45:40.204Z,2.80
2022-07-30T13:48:07.924Z,2.50
2022-07-30T13:50:35.674Z,2.70
2022-07-30T13:53:03.464Z,2.70
2022-07-30T13:55:31.270Z,2.70
2022-07-30T13:57:59.828Z,2.90
2022-07-30T14:00:34.250Z,2.70
2022-07-30T14:03:11.729Z,2.30
2022-07-30T14:05:42.142Z,2.10
2022-07-30T14:08:11.847Z,2.20
2022-07-30T14:10:40.157Z,2.30
2022-07-30T14:13:10.374Z,2.30
2022-07-30T14:15:46.716Z,2.30
2022-07-30T14:18:14.413Z,2.40
2022-07-30T14:20:45.536Z,2.40
2022-07-30T14:23:16.541Z,2.20
2022-07-30T14:25:44.756Z,2.10
2022-07-30T14:28:12.857Z,2.00
2022-07-30T14:30:40.592Z,2.00
2022-07-30T14:33:08.365Z,2.30
2022-07-30T14:35:36.129Z,2.50
2022-07-30T14:38:04.103Z,2.20
2022-07-30T14:40:31.864Z,2.20
2022-07-30T14:42:59.579Z,2.30
2022-07-30T14:45:30.109Z,2.50
2022-07-30T14:47:57.769Z,2.10
2022-07-30T14:50:25.427Z,1.70
2022-07-30T14:52:53.158Z,2.10
2022-07-30T14:55:20.860Z,2.20
2022-07-30T14:57:48.472Z,2.10
2022-07-30T15:00:16.466Z,2.20
2022-07-30T15:02:44.129Z,2.00
2022-07-30T15:05:11.751Z,1.90
2022-07-30T15:07:39.434Z,1.80
2022-07-30T15:10:08.048Z,2.10
2022-07-30T15:12:37.104Z,2.30
2022-07-30T15:15:08.338Z,2.30
2022-07-30T15:17:38.869Z,2.30
2022-07-30T15:20:09.101Z,1.70
2022-07-30T15:22:36.854Z,1.90
2022-07-30T15:25:05.680Z,1.80
2022-07-30T15:27:34.433Z,2.00
2022-07-30T15:30:03.978Z,2.50
2022-07-30T15:32:31.670Z,2.40
2022-07-30T15:34:59.449Z,2.00
2022-07-30T15:37:27.185Z,2.50
2022-07-30T15:39:54.885Z,2.30
2022-07-30T15:42:22.617Z,2.60
2022-07-30T15:45:14.320Z,2.40
2022-07-30T15:47:38.005Z,2.10
2022-07-30T15:50:06.312Z,1.90
2022-07-30T15:52:36.375Z,2.30
2022-07-30T15:55:05.354Z,2.00
2022-07-30T15:57:33.020Z,1.60
2022-07-30T16:00:00.774Z,2.20
2022-07-30T16:02:28.450Z,2.20
2022-07-30T16:04:56.115Z,2.00
2022-07-30T16:07:24.218Z,2.20
2022-07-30T16:09:51.850Z,2.10
2022-07-30T16:12:19.602Z,2.00
2022-07-30T16:14:47.586Z,2.00
2022-07-30T16:17:16.490Z,1.70
2022-07-30T16:19:44.741Z,2.50
2022-07-30T16:22:14.947Z,2.40
2022-07-30T16:24:50.057Z,2.50
2022-07-30T16:27:17.931Z,2.30
2022-07-30T16:29:45.597Z,2.30
2022-07-30T16:32:13.276Z,2.40
2022-07-30T16:34:40.970Z,2.10
2022-07-30T16:37:09.647Z,2.70
2022-07-30T16:39:37.286Z,1.70
2022-07-30T16:42:05.260Z,2.10
2022-07-30T16:44:34.408Z,1.80
2022-07-30T16:47:02.150Z,1.70
2022-07-30T16:49:30.396Z,1.90
2022-07-30T16:51:58.182Z,1.90
2022-07-30T16:54:25.967Z,1.90
2022-07-30T16:56:53.595Z,1.80
2022-07-30T16:59:21.967Z,1.90
2022-07-30T17:01:49.971Z,1.80
2022-07-30T17:04:17.743Z,2.00
2022-07-30T17:06:45.457Z,1.90
2022-07-30T17:09:15.784Z,2.00
2022-07-30T17:11:47.037Z,1.90
2022-07-30T17:14:22.252Z,1.80
2022-07-30T17:16:50.536Z,2.00
2022-07-30T17:19:18.385Z,2.00
2022-07-30T17:21:46.095Z,2.00
2022-07-30T17:24:13.934Z,1.90
2022-07-30T17:26:43.635Z,1.90
2022-07-30T17:29:14.798Z,1.70
2022-07-30T17:31:44.278Z,1.60
2022-07-30T17:34:14.864Z,1.70
2022-07-30T17:36:51.978Z,1.70
2022-07-30T17:40:27.149Z,1.50
2022-07-30T17:42:11.321Z,1.60
2022-07-30T17:44:41.554Z,1.60
2022-07-30T17:47:15.149Z,1.40
2022-07-30T17:49:44.356Z,1.50
2022-07-30T17:52:12.111Z,1.50
2022-07-30T17:54:40.343Z,1.50
2022-07-30T17:57:08.535Z,1.40
2022-07-30T17:59:36.707Z,1.60
2022-07-30T18:02:05.578Z,1.50
2022-07-30T18:04:34.854Z,1.50
2022-07-30T18:07:03.296Z,1.40
2022-07-30T18:09:37.810Z,1.40
2022-07-30T18:12:07.980Z,1.40
2022-07-30T18:14:35.645Z,1.50
2022-07-30T18:17:04.480Z,1.60
2022-07-30T18:19:32.169Z,1.50
2022-07-30T18:22:02.278Z,1.50
2022-07-30T18:24:30.880Z,2.00
2022-07-30T18:26:58.501Z,1.50
2022-07-30T18:29:26.355Z,1.30
2022-07-30T18:31:54.155Z,1.60
2022-07-30T18:34:21.825Z,1.60
2022-07-30T18:36:51.325Z,1.50
2022-07-30T18:39:19.395Z,1.50
2022-07-30T18:41:47.267Z,1.50
2022-07-30T18:44:14.956Z,1.30
2022-07-30T18:46:42.944Z,1.40
2022-07-30T18:49:34.962Z,1.30
2022-07-30T18:52:01.571Z,1.60
2022-07-30T18:54:31.403Z,1.50
2022-07-30T18:56:59.336Z,1.80
2022-07-30T18:59:28.262Z,1.50
2022-07-30T19:01:56.321Z,1.70
2022-07-30T19:04:24.195Z,1.60
2022-07-30T19:06:51.839Z,1.60
2022-07-30T19:09:19.515Z,1.40
2022-07-30T19:11:47.202Z,1.40
2022-07-30T19:14:15.270Z,1.40
2022-07-30T19:16:43.506Z,1.70
2022-07-30T19:19:13.635Z,1.10
2022-07-30T19:21:41.814Z,1.30
2022-07-30T19:24:10.230Z,1.50
2022-07-30T19:26:39.807Z,1.60
2022-07-30T19:29:08.063Z,1.90
2022-07-30T19:31:35.886Z,1.70
2022-07-30T19:34:03.690Z,1.80
2022-07-30T19:36:31.453Z,1.90
2022-07-30T19:38:59.159Z,1.80
2022-07-30T19:41:40.595Z,1.80
2022-07-30T19:44:09.648Z,1.60
2022-07-30T19:46:39.088Z,1.90
2022-07-30T19:49:12.411Z,1.90
2022-07-30T19:52:11.171Z,1.80
2022-07-30T19:54:28.363Z,1.50
2022-07-30T19:56:55.992Z,1.80
2022-07-30T19:59:45.472Z,2.00
2022-07-30T20:02:13.575Z,1.70
2022-07-30T20:04:43.819Z,2.20
2022-07-30T20:07:12.025Z,1.80
2022-07-30T20:09:43.014Z,1.80
2022-07-30T20:12:12.828Z,2.00
2022-07-30T20:14:43.489Z,2.40
2022-07-30T20:17:11.783Z,1.80
2022-07-30T20:19:47.431Z,2.30
2022-07-30T20:22:17.013Z,2.10
2022-07-30T20:24:47.942Z,2.50
2022-07-30T20:27:35.964Z,1.90
2022-07-30T20:30:05.112Z,2.10
2022-07-30T20:32:32.789Z,1.70
2022-07-30T20:35:00.459Z,2.00
2022-07-30T20:37:28.919Z,2.00
2022-07-30T20:39:57.339Z,2.20
2022-07-30T20:42:25.590Z,1.90
2022-07-30T20:44:54.500Z,2.40
2022-07-30T20:47:33.402Z,2.30
2022-07-30T20:50:10.267Z,2.40
2022-07-30T20:55:09.940Z,2.50
2022-07-30T20:57:57.080Z,2.00
2022-07-30T21:00:31.146Z,1.90
2022-07-30T21:02:59.550Z,2.40
2022-07-30T21:05:31.594Z,2.30
2022-07-30T21:07:59.796Z,2.30
2022-07-30T21:10:28.480Z,2.10
2022-07-30T21:13:03.171Z,2.10
2022-07-30T21:15:36.202Z,2.10
2022-07-30T21:18:13.190Z,2.20
2022-07-30T21:20:40.859Z,2.30
2022-07-30T21:23:20.721Z,2.30
2022-07-30T21:26:00.946Z,1.80
2022-07-30T21:28:35.827Z,2.30
2022-07-30T21:31:07.078Z,1.70
2022-07-30T21:33:38.375Z,2.00
2022-07-30T21:36:10.237Z,2.00
2022-07-30T21:38:41.913Z,1.90
2022-07-30T21:41:14.332Z,2.00
2022-07-30T21:43:44.693Z,1.90
2022-07-30T21:46:13.572Z,1.80
2022-07-30T21:48:45.225Z,2.00
2022-07-30T21:51:13.787Z,1.80
2022-07-30T21:53:44.822Z,1.90
2022-07-30T21:56:14.989Z,2.20
2022-07-30T21:58:44.405Z,1.80
2022-07-30T22:01:17.070Z,2.10
2022-07-30T22:04:03.681Z,2.30
2022-07-30T22:06:40.474Z,1.90
2022-07-30T22:09:19.291Z,1.80
2022-07-30T22:12:09.177Z,1.80
2022-07-30T22:14:38.040Z,1.90
2022-07-30T22:17:06.105Z,1.90
2022-07-30T22:19:51.932Z,2.10
2022-07-30T22:25:09.728Z,1.70
2022-07-30T22:27:39.491Z,2.10
2022-07-30T22:30:10.114Z,2.30
2022-07-30T22:32:38.841Z,2.10
2022-07-30T22:35:07.401Z,1.70
2022-07-30T22:37:35.130Z,2.10
2022-07-30T22:40:06.682Z,2.00
2022-07-30T22:42:36.637Z,1.80
2022-07-30T22:45:44.959Z,2.00
2022-07-30T22:48:10.793Z,2.10
2022-07-30T22:50:40.793Z,1.80
2022-07-30T22:53:23.563Z,1.90
2022-07-30T22:55:58.767Z,1.90
2022-07-30T22:58:29.728Z,2.30
2022-07-30T23:00:57.688Z,1.70
2022-07-30T23:03:25.406Z,2.10
2022-07-30T23:05:56.607Z,2.00
2022-07-30T23:08:30.281Z,2.30
2022-07-30T23:10:59.896Z,1.90
2022-07-30T23:12:32.859Z,1.60
2022-07-30T23:13:28.730Z,1.80
2022-07-30T23:15:56.589Z,2.20
2022-07-30T23:18:24.229Z,2.10
2022-07-30T23:20:51.869Z,2.00
2022-07-30T23:23:19.553Z,2.00
2022-07-30T23:25:47.215Z,2.10
2022-07-30T23:28:15.002Z,1.80
2022-07-30T23:30:42.716Z,2.30
2022-07-30T23:33:10.377Z,1.80
2022-07-30T23:35:38.244Z,2.30
2022-07-30T23:38:05.994Z,2.20
2022-07-30T23:40:33.686Z,2.40
2022-07-30T23:43:01.363Z,2.20
2022-07-30T23:45:29.108Z,2.10
2022-07-30T23:48:02.476Z,2.00
2022-07-30T23:50:32.302Z,2.50
2022-07-30T23:53:01.713Z,2.20
2022-07-30T23:55:30.719Z,2.40
2022-07-30T23:57:58.877Z,2.30
